sensor_id;sensor_type;location;lat;lon;timestamp;P1;durP1;ratioP1;P2;durP2;ratioP2
37805;SDS011;25082;50.870;0.022;2023-12-14T00:00:47;2.10;;;1.00;;
37805;SDS011;25082;50.870;0.022;2023-12-14T00:03:13;2.67;;;1.30;;
37805;SDS011;25082;50.870;0.022;2023-12-14T00:05:39;2.00;;;1.10;;
37805;SDS011;25082;50.870;0.022;2023-12-14T00:08:05;2.85;;;1.05;;
37805;SDS011;25082;50.870;0.022;2023-12-14T00:10:31;5.25;;;1.48;;
37805;SDS011;25082;50.870;0.022;2023-12-14T00:12:59;3.30;;;1.38;;
37805;SDS011;25082;50.870;0.022;2023-12-14T00:15:25;2.95;;;1.30;;
37805;SDS011;25082;50.870;0.022;2023-12-14T00:17:51;1.17;;;0.98;;
37805;SDS011;25082;50.870;0.022;2023-12-14T00:20:19;2.55;;;1.13;;
37805;SDS011;25082;50.870;0.022;2023-12-14T00:22:45;2.15;;;1.40;;
37805;SDS011;25082;50.870;0.022;2023-12-14T00:25:11;1.83;;;1.10;;
37805;SDS011;25082;50.870;0.022;2023-12-14T00:27:36;1.95;;;1.15;;
37805;SDS011;25082;50.870;0.022;2023-12-14T00:30:02;3.05;;;1.40;;
37805;SDS011;25082;50.870;0.022;2023-12-14T00:32:28;3.83;;;1.50;;
37805;SDS011;25082;50.870;0.022;2023-12-14T00:34:54;2.47;;;1.10;;
37805;SDS011;25082;50.870;0.022;2023-12-14T00:37:20;2.42;;;1.13;;
37805;SDS011;25082;50.870;0.022;2023-12-14T00:39:45;2.28;;;1.20;;
37805;SDS011;25082;50.870;0.022;2023-12-14T00:42:11;3.30;;;1.25;;
37805;SDS011;25082;50.870;0.022;2023-12-14T00:44:37;3.35;;;1.30;;
37805;SDS011;25082;50.870;0.022;2023-12-14T00:47:03;1.70;;;1.05;;
37805;SDS011;25082;50.870;0.022;2023-12-14T00:49:29;2.67;;;1.55;;
37805;SDS011;25082;50.870;0.022;2023-12-14T00:51:54;2.60;;;1.20;;
37805;SDS011;25082;50.870;0.022;2023-12-14T00:54:21;3.20;;;1.45;;
37805;SDS011;25082;50.870;0.022;2023-12-14T00:56:46;2.50;;;1.30;;
37805;SDS011;25082;50.870;0.022;2023-12-14T00:59:12;2.53;;;1.73;;
37805;SDS011;25082;50.870;0.022;2023-12-14T01:01:38;1.80;;;1.38;;
37805;SDS011;25082;50.870;0.022;2023-12-14T01:04:04;3.63;;;1.10;;
37805;SDS011;25082;50.870;0.022;2023-12-14T01:06:30;3.08;;;1.40;;
37805;SDS011;25082;50.870;0.022;2023-12-14T01:08:55;2.63;;;1.23;;
37805;SDS011;25082;50.870;0.022;2023-12-14T01:11:21;2.53;;;1.40;;
37805;SDS011;25082;50.870;0.022;2023-12-14T01:13:47;3.17;;;1.50;;
37805;SDS011;25082;50.870;0.022;2023-12-14T01:16:13;3.55;;;1.50;;
37805;SDS011;25082;50.870;0.022;2023-12-14T01:18:39;2.70;;;1.15;;
37805;SDS011;25082;50.870;0.022;2023-12-14T01:21:04;4.90;;;1.70;;
37805;SDS011;25082;50.870;0.022;2023-12-14T01:23:30;2.10;;;1.20;;
37805;SDS011;25082;50.870;0.022;2023-12-14T01:25:56;2.80;;;1.23;;
37805;SDS011;25082;50.870;0.022;2023-12-14T01:28:22;2.88;;;1.42;;
37805;SDS011;25082;50.870;0.022;2023-12-14T01:30:47;4.03;;;1.50;;
37805;SDS011;25082;50.870;0.022;2023-12-14T01:33:13;3.08;;;1.63;;
37805;SDS011;25082;50.870;0.022;2023-12-14T01:35:39;4.05;;;1.10;;
37805;SDS011;25082;50.870;0.022;2023-12-14T01:38:05;2.65;;;1.45;;
37805;SDS011;25082;50.870;0.022;2023-12-14T01:40:30;3.17;;;1.50;;
37805;SDS011;25082;50.870;0.022;2023-12-14T01:43:06;5.40;;;1.98;;
37805;SDS011;25082;50.870;0.022;2023-12-14T01:45:33;2.53;;;1.27;;
37805;SDS011;25082;50.870;0.022;2023-12-14T01:47:59;5.45;;;1.35;;
37805;SDS011;25082;50.870;0.022;2023-12-14T01:50:24;3.72;;;1.30;;
37805;SDS011;25082;50.870;0.022;2023-12-14T01:52:50;3.25;;;1.30;;
37805;SDS011;25082;50.870;0.022;2023-12-14T01:55:16;2.25;;;1.42;;
37805;SDS011;25082;50.870;0.022;2023-12-14T01:57:41;3.30;;;1.65;;
37805;SDS011;25082;50.870;0.022;2023-12-14T02:00:07;4.97;;;2.00;;
37805;SDS011;25082;50.870;0.022;2023-12-14T02:02:42;3.30;;;1.17;;
37805;SDS011;25082;50.870;0.022;2023-12-14T02:05:08;2.65;;;1.35;;
37805;SDS011;25082;50.870;0.022;2023-12-14T02:07:33;2.42;;;1.30;;
37805;SDS011;25082;50.870;0.022;2023-12-14T02:09:59;3.40;;;1.65;;
37805;SDS011;25082;50.870;0.022;2023-12-14T02:12:25;3.78;;;1.27;;
37805;SDS011;25082;50.870;0.022;2023-12-14T02:14:51;4.03;;;1.40;;
37805;SDS011;25082;50.870;0.022;2023-12-14T02:17:17;2.13;;;1.30;;
37805;SDS011;25082;50.870;0.022;2023-12-14T02:19:42;3.13;;;1.33;;
37805;SDS011;25082;50.870;0.022;2023-12-14T02:22:08;3.20;;;1.58;;
37805;SDS011;25082;50.870;0.022;2023-12-14T02:24:34;2.90;;;1.00;;
37805;SDS011;25082;50.870;0.022;2023-12-14T02:26:59;5.07;;;1.40;;
37805;SDS011;25082;50.870;0.022;2023-12-14T02:29:25;1.95;;;1.23;;
37805;SDS011;25082;50.870;0.022;2023-12-14T02:31:51;3.55;;;1.27;;
37805;SDS011;25082;50.870;0.022;2023-12-14T02:34:17;2.65;;;1.08;;
37805;SDS011;25082;50.870;0.022;2023-12-14T02:36:44;4.57;;;1.30;;
37805;SDS011;25082;50.870;0.022;2023-12-14T02:39:09;2.85;;;1.30;;
37805;SDS011;25082;50.870;0.022;2023-12-14T02:41:35;4.03;;;1.52;;
37805;SDS011;25082;50.870;0.022;2023-12-14T02:44:01;4.00;;;1.42;;
37805;SDS011;25082;50.870;0.022;2023-12-14T02:46:27;4.25;;;1.45;;
37805;SDS011;25082;50.870;0.022;2023-12-14T02:48:52;2.67;;;1.33;;
37805;SDS011;25082;50.870;0.022;2023-12-14T02:51:18;3.80;;;1.20;;
37805;SDS011;25082;50.870;0.022;2023-12-14T02:53:44;3.22;;;1.55;;
37805;SDS011;25082;50.870;0.022;2023-12-14T02:56:10;2.55;;;1.40;;
37805;SDS011;25082;50.870;0.022;2023-12-14T02:58:37;4.05;;;1.83;;
37805;SDS011;25082;50.870;0.022;2023-12-14T03:01:03;1.58;;;1.13;;
37805;SDS011;25082;50.870;0.022;2023-12-14T03:03:29;2.13;;;1.13;;
37805;SDS011;25082;50.870;0.022;2023-12-14T03:05:55;1.88;;;1.30;;
37805;SDS011;25082;50.870;0.022;2023-12-14T03:08:20;3.65;;;1.40;;
37805;SDS011;25082;50.870;0.022;2023-12-14T03:10:46;4.35;;;1.60;;
37805;SDS011;25082;50.870;0.022;2023-12-14T03:13:12;2.65;;;1.33;;
37805;SDS011;25082;50.870;0.022;2023-12-14T03:15:37;2.72;;;1.33;;
37805;SDS011;25082;50.870;0.022;2023-12-14T03:18:03;3.60;;;1.10;;
37805;SDS011;25082;50.870;0.022;2023-12-14T03:20:29;1.95;;;1.17;;
37805;SDS011;25082;50.870;0.022;2023-12-14T03:22:55;2.33;;;1.30;;
37805;SDS011;25082;50.870;0.022;2023-12-14T03:25:21;3.45;;;1.35;;
37805;SDS011;25082;50.870;0.022;2023-12-14T03:27:47;2.22;;;0.88;;
37805;SDS011;25082;50.870;0.022;2023-12-14T03:30:12;2.13;;;0.95;;
37805;SDS011;25082;50.870;0.022;2023-12-14T03:32:38;3.78;;;1.20;;
37805;SDS011;25082;50.870;0.022;2023-12-14T03:35:04;2.55;;;1.20;;
37805;SDS011;25082;50.870;0.022;2023-12-14T03:37:30;3.60;;;1.35;;
37805;SDS011;25082;50.870;0.022;2023-12-14T03:39:56;2.85;;;1.35;;
37805;SDS011;25082;50.870;0.022;2023-12-14T03:42:21;2.53;;;0.80;;
37805;SDS011;25082;50.870;0.022;2023-12-14T03:44:47;1.35;;;0.98;;
37805;SDS011;25082;50.870;0.022;2023-12-14T03:47:13;3.25;;;1.40;;
37805;SDS011;25082;50.870;0.022;2023-12-14T03:49:39;3.50;;;1.10;;
37805;SDS011;25082;50.870;0.022;2023-12-14T03:52:05;3.13;;;1.27;;
37805;SDS011;25082;50.870;0.022;2023-12-14T03:54:30;2.75;;;1.10;;
37805;SDS011;25082;50.870;0.022;2023-12-14T03:56:56;3.38;;;1.40;;
37805;SDS011;25082;50.870;0.022;2023-12-14T03:59:22;4.07;;;1.25;;
37805;SDS011;25082;50.870;0.022;2023-12-14T04:01:48;2.38;;;1.10;;
37805;SDS011;25082;50.870;0.022;2023-12-14T04:04:13;3.85;;;1.35;;
37805;SDS011;25082;50.870;0.022;2023-12-14T04:06:39;2.00;;;1.05;;
37805;SDS011;25082;50.870;0.022;2023-12-14T04:09:05;3.08;;;1.25;;
37805;SDS011;25082;50.870;0.022;2023-12-14T04:11:31;4.60;;;1.40;;
37805;SDS011;25082;50.870;0.022;2023-12-14T04:13:56;4.30;;;1.30;;
37805;SDS011;25082;50.870;0.022;2023-12-14T04:16:22;2.50;;;0.90;;
37805;SDS011;25082;50.870;0.022;2023-12-14T04:18:48;2.67;;;1.08;;
37805;SDS011;25082;50.870;0.022;2023-12-14T04:21:14;3.28;;;1.20;;
37805;SDS011;25082;50.870;0.022;2023-12-14T04:23:40;2.65;;;1.38;;
37805;SDS011;25082;50.870;0.022;2023-12-14T04:26:05;4.40;;;1.23;;
37805;SDS011;25082;50.870;0.022;2023-12-14T04:28:32;1.30;;;1.02;;
37805;SDS011;25082;50.870;0.022;2023-12-14T04:30:58;2.17;;;1.08;;
37805;SDS011;25082;50.870;0.022;2023-12-14T04:33:24;4.80;;;1.58;;
37805;SDS011;25082;50.870;0.022;2023-12-14T04:35:49;2.75;;;1.30;;
37805;SDS011;25082;50.870;0.022;2023-12-14T04:38:15;2.88;;;1.20;;
37805;SDS011;25082;50.870;0.022;2023-12-14T04:40:41;4.05;;;1.55;;
37805;SDS011;25082;50.870;0.022;2023-12-14T04:43:07;2.10;;;1.23;;
37805;SDS011;25082;50.870;0.022;2023-12-14T04:45:33;4.60;;;1.42;;
37805;SDS011;25082;50.870;0.022;2023-12-14T04:47:58;3.25;;;1.58;;
37805;SDS011;25082;50.870;0.022;2023-12-14T04:50:24;2.72;;;1.05;;
37805;SDS011;25082;50.870;0.022;2023-12-14T04:52:50;2.03;;;1.10;;
37805;SDS011;25082;50.870;0.022;2023-12-14T04:55:16;3.00;;;1.30;;
37805;SDS011;25082;50.870;0.022;2023-12-14T04:57:42;2.80;;;1.23;;
37805;SDS011;25082;50.870;0.022;2023-12-14T05:00:08;4.75;;;1.40;;
37805;SDS011;25082;50.870;0.022;2023-12-14T05:02:34;3.03;;;1.33;;
37805;SDS011;25082;50.870;0.022;2023-12-14T05:05:00;4.28;;;1.70;;
37805;SDS011;25082;50.870;0.022;2023-12-14T05:07:26;3.90;;;1.48;;
37805;SDS011;25082;50.870;0.022;2023-12-14T05:09:51;2.47;;;1.15;;
37805;SDS011;25082;50.870;0.022;2023-12-14T05:12:17;3.38;;;1.20;;
37805;SDS011;25082;50.870;0.022;2023-12-14T05:14:43;3.30;;;1.33;;
37805;SDS011;25082;50.870;0.022;2023-12-14T05:17:09;4.90;;;1.30;;
37805;SDS011;25082;50.870;0.022;2023-12-14T05:19:35;1.60;;;1.00;;
37805;SDS011;25082;50.870;0.022;2023-12-14T05:22:01;4.05;;;1.30;;
37805;SDS011;25082;50.870;0.022;2023-12-14T05:24:27;2.83;;;1.23;;
37805;SDS011;25082;50.870;0.022;2023-12-14T05:26:53;1.95;;;1.38;;
37805;SDS011;25082;50.870;0.022;2023-12-14T05:29:18;2.78;;;1.30;;
37805;SDS011;25082;50.870;0.022;2023-12-14T05:31:46;2.60;;;1.45;;
37805;SDS011;25082;50.870;0.022;2023-12-14T05:34:12;3.92;;;1.40;;
37805;SDS011;25082;50.870;0.022;2023-12-14T05:36:38;2.40;;;1.20;;
37805;SDS011;25082;50.870;0.022;2023-12-14T05:39:03;2.58;;;1.02;;
37805;SDS011;25082;50.870;0.022;2023-12-14T05:41:29;2.47;;;1.00;;
37805;SDS011;25082;50.870;0.022;2023-12-14T05:43:55;1.35;;;0.98;;
37805;SDS011;25082;50.870;0.022;2023-12-14T05:46:23;2.53;;;1.35;;
37805;SDS011;25082;50.870;0.022;2023-12-14T05:48:49;3.95;;;1.30;;
37805;SDS011;25082;50.870;0.022;2023-12-14T05:51:31;4.55;;;1.40;;
37805;SDS011;25082;50.870;0.022;2023-12-14T05:53:58;4.32;;;1.67;;
37805;SDS011;25082;50.870;0.022;2023-12-14T05:56:24;4.50;;;1.17;;
37805;SDS011;25082;50.870;0.022;2023-12-14T05:58:50;2.53;;;1.30;;
37805;SDS011;25082;50.870;0.022;2023-12-14T06:01:17;2.35;;;1.25;;
37805;SDS011;25082;50.870;0.022;2023-12-14T06:03:43;2.83;;;1.23;;
37805;SDS011;25082;50.870;0.022;2023-12-14T06:06:09;4.43;;;1.35;;
37805;SDS011;25082;50.870;0.022;2023-12-14T06:08:36;2.65;;;1.20;;
37805;SDS011;25082;50.870;0.022;2023-12-14T06:11:03;3.78;;;1.20;;
37805;SDS011;25082;50.870;0.022;2023-12-14T06:13:31;2.22;;;1.05;;
37805;SDS011;25082;50.870;0.022;2023-12-14T06:15:57;4.07;;;1.67;;
37805;SDS011;25082;50.870;0.022;2023-12-14T06:18:23;3.58;;;1.33;;
37805;SDS011;25082;50.870;0.022;2023-12-14T06:20:49;1.73;;;1.10;;
37805;SDS011;25082;50.870;0.022;2023-12-14T06:23:14;2.15;;;1.40;;
37805;SDS011;25082;50.870;0.022;2023-12-14T06:25:40;3.30;;;1.30;;
37805;SDS011;25082;50.870;0.022;2023-12-14T06:28:06;2.42;;;1.35;;
37805;SDS011;25082;50.870;0.022;2023-12-14T06:30:32;3.58;;;1.20;;
37805;SDS011;25082;50.870;0.022;2023-12-14T06:32:58;2.88;;;1.63;;
37805;SDS011;25082;50.870;0.022;2023-12-14T06:35:24;2.78;;;1.23;;
37805;SDS011;25082;50.870;0.022;2023-12-14T06:37:50;2.60;;;1.27;;
37805;SDS011;25082;50.870;0.022;2023-12-14T06:40:15;2.40;;;1.55;;
37805;SDS011;25082;50.870;0.022;2023-12-14T06:42:41;2.78;;;1.75;;
37805;SDS011;25082;50.870;0.022;2023-12-14T06:45:07;3.75;;;1.52;;
37805;SDS011;25082;50.870;0.022;2023-12-14T06:47:35;2.90;;;1.08;;
37805;SDS011;25082;50.870;0.022;2023-12-14T06:50:00;4.70;;;1.48;;
37805;SDS011;25082;50.870;0.022;2023-12-14T06:52:26;2.55;;;1.40;;
37805;SDS011;25082;50.870;0.022;2023-12-14T06:54:52;3.10;;;1.20;;
37805;SDS011;25082;50.870;0.022;2023-12-14T06:57:18;3.83;;;1.30;;
37805;SDS011;25082;50.870;0.022;2023-12-14T06:59:43;2.88;;;1.45;;
37805;SDS011;25082;50.870;0.022;2023-12-14T07:02:09;2.58;;;1.60;;
37805;SDS011;25082;50.870;0.022;2023-12-14T07:04:35;7.18;;;1.83;;
37805;SDS011;25082;50.870;0.022;2023-12-14T07:07:01;3.10;;;1.25;;
37805;SDS011;25082;50.870;0.022;2023-12-14T07:09:27;3.55;;;1.58;;
37805;SDS011;25082;50.870;0.022;2023-12-14T07:11:53;2.97;;;1.15;;
37805;SDS011;25082;50.870;0.022;2023-12-14T07:14:18;3.75;;;1.58;;
37805;SDS011;25082;50.870;0.022;2023-12-14T07:16:44;3.50;;;1.63;;
37805;SDS011;25082;50.870;0.022;2023-12-14T07:19:10;2.42;;;1.30;;
37805;SDS011;25082;50.870;0.022;2023-12-14T07:21:36;2.40;;;1.10;;
37805;SDS011;25082;50.870;0.022;2023-12-14T07:24:04;3.20;;;1.42;;
37805;SDS011;25082;50.870;0.022;2023-12-14T07:26:30;2.33;;;1.00;;
37805;SDS011;25082;50.870;0.022;2023-12-14T07:28:56;2.42;;;1.35;;
37805;SDS011;25082;50.870;0.022;2023-12-14T07:31:22;3.25;;;1.20;;
37805;SDS011;25082;50.870;0.022;2023-12-14T07:33:47;3.55;;;1.38;;
37805;SDS011;25082;50.870;0.022;2023-12-14T07:36:13;3.00;;;1.15;;
37805;SDS011;25082;50.870;0.022;2023-12-14T07:38:39;2.25;;;1.40;;
37805;SDS011;25082;50.870;0.022;2023-12-14T07:41:08;3.50;;;1.27;;
37805;SDS011;25082;50.870;0.022;2023-12-14T07:43:34;2.95;;;1.60;;
37805;SDS011;25082;50.870;0.022;2023-12-14T07:45:59;2.45;;;1.15;;
37805;SDS011;25082;50.870;0.022;2023-12-14T07:48:25;2.40;;;1.10;;
37805;SDS011;25082;50.870;0.022;2023-12-14T07:50:53;3.42;;;1.33;;
37805;SDS011;25082;50.870;0.022;2023-12-14T07:53:19;2.25;;;1.33;;
37805;SDS011;25082;50.870;0.022;2023-12-14T07:55:45;3.38;;;1.67;;
37805;SDS011;25082;50.870;0.022;2023-12-14T07:58:11;2.92;;;1.13;;
37805;SDS011;25082;50.870;0.022;2023-12-14T08:00:38;5.63;;;1.55;;
37805;SDS011;25082;50.870;0.022;2023-12-14T08:03:03;4.97;;;1.27;;
37805;SDS011;25082;50.870;0.022;2023-12-14T08:05:30;3.30;;;1.60;;
37805;SDS011;25082;50.870;0.022;2023-12-14T08:07:56;2.63;;;1.40;;
37805;SDS011;25082;50.870;0.022;2023-12-14T08:10:22;3.50;;;1.25;;
37805;SDS011;25082;50.870;0.022;2023-12-14T08:12:47;3.15;;;1.23;;
37805;SDS011;25082;50.870;0.022;2023-12-14T08:15:13;3.28;;;1.45;;
37805;SDS011;25082;50.870;0.022;2023-12-14T08:17:39;3.15;;;1.10;;
37805;SDS011;25082;50.870;0.022;2023-12-14T08:20:06;3.85;;;1.50;;
37805;SDS011;25082;50.870;0.022;2023-12-14T08:22:34;3.40;;;1.20;;
37805;SDS011;25082;50.870;0.022;2023-12-14T08:25:00;2.47;;;1.10;;
37805;SDS011;25082;50.870;0.022;2023-12-14T08:27:25;3.35;;;1.40;;
37805;SDS011;25082;50.870;0.022;2023-12-14T08:29:51;2.53;;;0.88;;
37805;SDS011;25082;50.870;0.022;2023-12-14T08:32:17;2.47;;;1.08;;
37805;SDS011;25082;50.870;0.022;2023-12-14T08:34:42;2.95;;;1.10;;
37805;SDS011;25082;50.870;0.022;2023-12-14T08:37:08;4.45;;;1.38;;
37805;SDS011;25082;50.870;0.022;2023-12-14T08:39:34;1.65;;;0.77;;
37805;SDS011;25082;50.870;0.022;2023-12-14T08:42:00;1.40;;;1.15;;
37805;SDS011;25082;50.870;0.022;2023-12-14T08:44:26;5.45;;;1.27;;
37805;SDS011;25082;50.870;0.022;2023-12-14T08:46:51;2.60;;;1.52;;
37805;SDS011;25082;50.870;0.022;2023-12-14T08:49:17;2.03;;;1.27;;
37805;SDS011;25082;50.870;0.022;2023-12-14T08:51:43;1.38;;;1.00;;
37805;SDS011;25082;50.870;0.022;2023-12-14T08:54:09;2.75;;;1.10;;
37805;SDS011;25082;50.870;0.022;2023-12-14T08:56:34;3.85;;;1.75;;
37805;SDS011;25082;50.870;0.022;2023-12-14T08:59:00;1.90;;;1.20;;
37805;SDS011;25082;50.870;0.022;2023-12-14T09:01:28;2.80;;;1.55;;
37805;SDS011;25082;50.870;0.022;2023-12-14T09:03:54;1.95;;;1.00;;
37805;SDS011;25082;50.870;0.022;2023-12-14T09:06:20;4.07;;;1.10;;
37805;SDS011;25082;50.870;0.022;2023-12-14T09:08:46;3.75;;;1.33;;
37805;SDS011;25082;50.870;0.022;2023-12-14T09:11:12;2.60;;;1.23;;
37805;SDS011;25082;50.870;0.022;2023-12-14T09:13:38;3.50;;;1.20;;
37805;SDS011;25082;50.870;0.022;2023-12-14T09:16:04;3.75;;;1.27;;
37805;SDS011;25082;50.870;0.022;2023-12-14T09:18:30;2.97;;;1.05;;
37805;SDS011;25082;50.870;0.022;2023-12-14T09:20:56;3.42;;;1.10;;
37805;SDS011;25082;50.870;0.022;2023-12-14T09:23:21;2.95;;;1.13;;
37805;SDS011;25082;50.870;0.022;2023-12-14T09:25:47;2.40;;;1.13;;
37805;SDS011;25082;50.870;0.022;2023-12-14T09:28:13;4.15;;;1.40;;
37805;SDS011;25082;50.870;0.022;2023-12-14T09:30:38;5.13;;;1.40;;
37805;SDS011;25082;50.870;0.022;2023-12-14T09:33:04;3.85;;;1.20;;
37805;SDS011;25082;50.870;0.022;2023-12-14T09:35:33;3.65;;;1.00;;
37805;SDS011;25082;50.870;0.022;2023-12-14T09:38:01;3.47;;;1.42;;
37805;SDS011;25082;50.870;0.022;2023-12-14T09:40:31;3.92;;;1.60;;
37805;SDS011;25082;50.870;0.022;2023-12-14T09:42:56;9.98;;;1.70;;
37805;SDS011;25082;50.870;0.022;2023-12-14T09:45:29;3.63;;;1.08;;
37805;SDS011;25082;50.870;0.022;2023-12-14T09:47:58;2.97;;;1.23;;
37805;SDS011;25082;50.870;0.022;2023-12-14T09:50:25;3.05;;;1.20;;
37805;SDS011;25082;50.870;0.022;2023-12-14T09:52:51;3.53;;;1.20;;
37805;SDS011;25082;50.870;0.022;2023-12-14T09:55:17;2.35;;;1.23;;
37805;SDS011;25082;50.870;0.022;2023-12-14T09:57:43;3.55;;;1.60;;
37805;SDS011;25082;50.870;0.022;2023-12-14T10:00:09;3.88;;;1.35;;
37805;SDS011;25082;50.870;0.022;2023-12-14T10:02:36;3.45;;;1.38;;
37805;SDS011;25082;50.870;0.022;2023-12-14T10:05:02;3.03;;;1.35;;
37805;SDS011;25082;50.870;0.022;2023-12-14T10:07:29;1.63;;;1.20;;
37805;SDS011;25082;50.870;0.022;2023-12-14T10:10:01;2.40;;;1.65;;
37805;SDS011;25082;50.870;0.022;2023-12-14T10:13:12;2.33;;;1.17;;
37805;SDS011;25082;50.870;0.022;2023-12-14T10:15:39;2.83;;;1.17;;
37805;SDS011;25082;50.870;0.022;2023-12-14T10:18:06;4.63;;;1.83;;
37805;SDS011;25082;50.870;0.022;2023-12-14T10:20:32;3.05;;;1.55;;
37805;SDS011;25082;50.870;0.022;2023-12-14T10:22:57;4.75;;;1.55;;
37805;SDS011;25082;50.870;0.022;2023-12-14T10:25:23;4.28;;;1.10;;
37805;SDS011;25082;50.870;0.022;2023-12-14T10:27:52;4.78;;;1.52;;
37805;SDS011;25082;50.870;0.022;2023-12-14T10:30:18;4.50;;;1.60;;
37805;SDS011;25082;50.870;0.022;2023-12-14T10:32:45;4.07;;;1.15;;
37805;SDS011;25082;50.870;0.022;2023-12-14T10:35:13;5.95;;;1.30;;
37805;SDS011;25082;50.870;0.022;2023-12-14T10:37:41;3.83;;;1.75;;
37805;SDS011;25082;50.870;0.022;2023-12-14T10:40:11;4.43;;;1.40;;
37805;SDS011;25082;50.870;0.022;2023-12-14T10:42:39;2.42;;;1.25;;
37805;SDS011;25082;50.870;0.022;2023-12-14T10:45:10;6.05;;;1.67;;
37805;SDS011;25082;50.870;0.022;2023-12-14T10:47:39;15.65;;;7.72;;
37805;SDS011;25082;50.870;0.022;2023-12-14T10:50:08;15.73;;;7.82;;
37805;SDS011;25082;50.870;0.022;2023-12-14T10:52:37;7.35;;;3.55;;
37805;SDS011;25082;50.870;0.022;2023-12-14T10:55:06;4.65;;;2.25;;
37805;SDS011;25082;50.870;0.022;2023-12-14T10:57:53;7.60;;;3.30;;
37805;SDS011;25082;50.870;0.022;2023-12-14T11:00:19;7.13;;;2.80;;
37805;SDS011;25082;50.870;0.022;2023-12-14T11:02:45;7.68;;;2.58;;
37805;SDS011;25082;50.870;0.022;2023-12-14T11:05:12;6.43;;;2.33;;
37805;SDS011;25082;50.870;0.022;2023-12-14T11:07:53;4.13;;;1.95;;
37805;SDS011;25082;50.870;0.022;2023-12-14T11:10:26;4.32;;;2.25;;
37805;SDS011;25082;50.870;0.022;2023-12-14T11:13:00;4.53;;;1.88;;
37805;SDS011;25082;50.870;0.022;2023-12-14T11:15:30;5.13;;;2.00;;
37805;SDS011;25082;50.870;0.022;2023-12-14T11:23:11;7.80;;;1.90;;
37805;SDS011;25082;50.870;0.022;2023-12-14T11:25:53;4.75;;;1.70;;
37805;SDS011;25082;50.870;0.022;2023-12-14T11:28:21;3.70;;;1.80;;
37805;SDS011;25082;50.870;0.022;2023-12-14T11:30:47;4.85;;;2.13;;
37805;SDS011;25082;50.870;0.022;2023-12-14T11:33:13;2.92;;;1.85;;
37805;SDS011;25082;50.870;0.022;2023-12-14T11:35:40;4.13;;;1.65;;
37805;SDS011;25082;50.870;0.022;2023-12-14T11:38:06;4.05;;;1.95;;
37805;SDS011;25082;50.870;0.022;2023-12-14T11:40:38;5.13;;;1.77;;
37805;SDS011;25082;50.870;0.022;2023-12-14T11:43:07;3.95;;;2.00;;
37805;SDS011;25082;50.870;0.022;2023-12-14T11:45:39;3.22;;;1.48;;
37805;SDS011;25082;50.870;0.022;2023-12-14T11:48:06;4.00;;;1.98;;
37805;SDS011;25082;50.870;0.022;2023-12-14T11:50:35;3.25;;;1.77;;
37805;SDS011;25082;50.870;0.022;2023-12-14T11:53:02;4.53;;;2.08;;
37805;SDS011;25082;50.870;0.022;2023-12-14T11:55:29;3.10;;;1.30;;
37805;SDS011;25082;50.870;0.022;2023-12-14T11:57:59;3.50;;;1.95;;
37805;SDS011;25082;50.870;0.022;2023-12-14T12:00:25;3.80;;;1.80;;
37805;SDS011;25082;50.870;0.022;2023-12-14T12:02:52;5.53;;;1.63;;
37805;SDS011;25082;50.870;0.022;2023-12-14T12:05:45;3.97;;;1.60;;
37805;SDS011;25082;50.870;0.022;2023-12-14T12:08:13;9.80;;;2.17;;
37805;SDS011;25082;50.870;0.022;2023-12-14T12:10:40;4.93;;;1.60;;
37805;SDS011;25082;50.870;0.022;2023-12-14T12:13:07;4.53;;;1.83;;
37805;SDS011;25082;50.870;0.022;2023-12-14T12:15:37;6.22;;;1.70;;
37805;SDS011;25082;50.870;0.022;2023-12-14T12:18:03;5.80;;;1.98;;
37805;SDS011;25082;50.870;0.022;2023-12-14T12:20:36;5.45;;;1.92;;
37805;SDS011;25082;50.870;0.022;2023-12-14T12:23:02;3.17;;;1.63;;
37805;SDS011;25082;50.870;0.022;2023-12-14T12:25:31;3.47;;;1.70;;
37805;SDS011;25082;50.870;0.022;2023-12-14T12:27:58;5.22;;;1.80;;
37805;SDS011;25082;50.870;0.022;2023-12-14T12:30:24;6.05;;;1.70;;
37805;SDS011;25082;50.870;0.022;2023-12-14T12:32:51;7.35;;;1.83;;
37805;SDS011;25082;50.870;0.022;2023-12-14T12:35:18;4.25;;;1.58;;
37805;SDS011;25082;50.870;0.022;2023-12-14T12:37:44;3.00;;;1.42;;
37805;SDS011;25082;50.870;0.022;2023-12-14T12:40:10;4.70;;;1.80;;
37805;SDS011;25082;50.870;0.022;2023-12-14T12:42:36;3.42;;;1.27;;
37805;SDS011;25082;50.870;0.022;2023-12-14T12:45:02;5.35;;;1.70;;
37805;SDS011;25082;50.870;0.022;2023-12-14T12:47:29;4.00;;;1.40;;
37805;SDS011;25082;50.870;0.022;2023-12-14T12:49:55;3.80;;;1.65;;
37805;SDS011;25082;50.870;0.022;2023-12-14T12:52:21;5.13;;;1.25;;
37805;SDS011;25082;50.870;0.022;2023-12-14T12:54:47;4.03;;;1.20;;
37805;SDS011;25082;50.870;0.022;2023-12-14T12:57:12;4.95;;;1.77;;
37805;SDS011;25082;50.870;0.022;2023-12-14T12:59:38;3.58;;;1.63;;
37805;SDS011;25082;50.870;0.022;2023-12-14T13:02:04;4.50;;;1.60;;
37805;SDS011;25082;50.870;0.022;2023-12-14T13:04:31;4.65;;;1.30;;
37805;SDS011;25082;50.870;0.022;2023-12-14T13:06:57;4.72;;;1.52;;
37805;SDS011;25082;50.870;0.022;2023-12-14T13:09:22;3.22;;;1.17;;
37805;SDS011;25082;50.870;0.022;2023-12-14T13:11:48;3.45;;;1.40;;
37805;SDS011;25082;50.870;0.022;2023-12-14T13:14:15;5.88;;;1.58;;
37805;SDS011;25082;50.870;0.022;2023-12-14T13:16:41;3.75;;;1.30;;
37805;SDS011;25082;50.870;0.022;2023-12-14T13:19:08;6.97;;;1.38;;
37805;SDS011;25082;50.870;0.022;2023-12-14T13:21:34;3.78;;;1.52;;
37805;SDS011;25082;50.870;0.022;2023-12-14T13:24:00;3.33;;;1.83;;
37805;SDS011;25082;50.870;0.022;2023-12-14T13:26:26;6.68;;;1.90;;
37805;SDS011;25082;50.870;0.022;2023-12-14T13:28:52;6.85;;;2.42;;
37805;SDS011;25082;50.870;0.022;2023-12-14T13:31:18;5.88;;;2.50;;
37805;SDS011;25082;50.870;0.022;2023-12-14T13:33:45;6.50;;;2.35;;
37805;SDS011;25082;50.870;0.022;2023-12-14T13:36:12;2.95;;;1.95;;
37805;SDS011;25082;50.870;0.022;2023-12-14T13:38:38;2.95;;;1.70;;
37805;SDS011;25082;50.870;0.022;2023-12-14T13:41:04;7.53;;;2.20;;
37805;SDS011;25082;50.870;0.022;2023-12-14T13:43:30;7.80;;;2.53;;
37805;SDS011;25082;50.870;0.022;2023-12-14T13:45:57;4.57;;;2.13;;
37805;SDS011;25082;50.870;0.022;2023-12-14T13:48:26;5.18;;;1.90;;
37805;SDS011;25082;50.870;0.022;2023-12-14T13:50:55;3.47;;;1.90;;
37805;SDS011;25082;50.870;0.022;2023-12-14T13:53:21;1.52;;;0.73;;
37805;SDS011;25082;50.870;0.022;2023-12-14T13:55:48;3.45;;;1.35;;
37805;SDS011;25082;50.870;0.022;2023-12-14T13:58:15;5.72;;;1.35;;
37805;SDS011;25082;50.870;0.022;2023-12-14T14:00:41;5.22;;;1.83;;
37805;SDS011;25082;50.870;0.022;2023-12-14T14:03:08;7.05;;;1.77;;
37805;SDS011;25082;50.870;0.022;2023-12-14T14:05:34;6.03;;;1.88;;
37805;SDS011;25082;50.870;0.022;2023-12-14T14:08:00;6.38;;;2.15;;
37805;SDS011;25082;50.870;0.022;2023-12-14T14:10:26;4.63;;;1.70;;
37805;SDS011;25082;50.870;0.022;2023-12-14T14:12:52;129.90;;;9.88;;
37805;SDS011;25082;50.870;0.022;2023-12-14T14:15:18;28.80;;;25.73;;
37805;SDS011;25082;50.870;0.022;2023-12-14T14:17:47;41.35;;;37.42;;
37805;SDS011;25082;50.870;0.022;2023-12-14T14:20:16;21.80;;;19.60;;
37805;SDS011;25082;50.870;0.022;2023-12-14T14:22:43;15.40;;;13.80;;
37805;SDS011;25082;50.870;0.022;2023-12-14T14:25:09;10.88;;;9.85;;
37805;SDS011;25082;50.870;0.022;2023-12-14T14:27:35;15.48;;;8.93;;
37805;SDS011;25082;50.870;0.022;2023-12-14T14:30:02;11.13;;;6.80;;
37805;SDS011;25082;50.870;0.022;2023-12-14T14:32:28;9.63;;;6.50;;
37805;SDS011;25082;50.870;0.022;2023-12-14T14:34:56;9.63;;;3.60;;
37805;SDS011;25082;50.870;0.022;2023-12-14T14:37:23;9.13;;;3.60;;
37805;SDS011;25082;50.870;0.022;2023-12-14T14:39:50;8.15;;;2.97;;
37805;SDS011;25082;50.870;0.022;2023-12-14T14:42:16;13.38;;;3.53;;
37805;SDS011;25082;50.870;0.022;2023-12-14T14:44:42;6.55;;;2.97;;
37805;SDS011;25082;50.870;0.022;2023-12-14T14:47:08;5.03;;;3.22;;
37805;SDS011;25082;50.870;0.022;2023-12-14T14:49:35;6.65;;;3.47;;